sensor_id;sensor_type;location;lat;lon;timestamp;temperature;humidity
10171;DHT22;5127;50.922;6.988;2022-11-24T00:02:15;8.80;72.40
10171;DHT22;5127;50.922;6.988;2022-11-24T00:04:42;8.80;72.40
10171;DHT22;5127;50.922;6.988;2022-11-24T00:07:09;8.70;72.40
10171;DHT22;5127;50.922;6.988;2022-11-24T00:09:36;8.70;72.40
10171;DHT22;5127;50.922;6.988;2022-11-24T00:12:05;8.70;72.40
10171;DHT22;5127;50.922;6.988;2022-11-24T00:14:32;8.70;72.50
10171;DHT22;5127;50.922;6.988;2022-11-24T00:16:59;8.70;72.60
10171;DHT22;5127;50.922;6.988;2022-11-24T00:19:27;8.70;72.80
10171;DHT22;5127;50.922;6.988;2022-11-24T00:21:54;8.70;72.90
10171;DHT22;5127;50.922;6.988;2022-11-24T00:24:21;8.70;73.00
10171;DHT22;5127;50.922;6.988;2022-11-24T00:26:48;8.70;73.00
10171;DHT22;5127;50.922;6.988;2022-11-24T00:29:17;8.70;73.00
10171;DHT22;5127;50.922;6.988;2022-11-24T00:31:44;8.70;73.00
10171;DHT22;5127;50.922;6.988;2022-11-24T00:34:13;8.80;73.00
10171;DHT22;5127;50.922;6.988;2022-11-24T00:36:40;8.80;73.00
10171;DHT22;5127;50.922;6.988;2022-11-24T00:39:10;8.80;73.00
10171;DHT22;5127;50.922;6.988;2022-11-24T00:41:38;8.80;73.00
10171;DHT22;5127;50.922;6.988;2022-11-24T00:44:06;8.80;73.00
10171;DHT22;5127;50.922;6.988;2022-11-24T00:46:34;8.80;73.00
10171;DHT22;5127;50.922;6.988;2022-11-24T00:49:02;8.80;73.00
10171;DHT22;5127;50.922;6.988;2022-11-24T00:51:29;8.80;73.00
10171;DHT22;5127;50.922;6.988;2022-11-24T00:53:57;8.80;73.00
10171;DHT22;5127;50.922;6.988;2022-11-24T00:56:26;8.80;73.10
10171;DHT22;5127;50.922;6.988;2022-11-24T00:58:53;8.80;73.10
10171;DHT22;5127;50.922;6.988;2022-11-24T01:01:22;8.80;73.10
10171;DHT22;5127;50.922;6.988;2022-11-24T01:03:52;8.70;73.10
10171;DHT22;5127;50.922;6.988;2022-11-24T01:06:21;8.80;73.30
10171;DHT22;5127;50.922;6.988;2022-11-24T01:08:49;8.80;73.30
10171;DHT22;5127;50.922;6.988;2022-11-24T01:11:18;8.80;73.30
10171;DHT22;5127;50.922;6.988;2022-11-24T01:13:47;8.80;73.50
10171;DHT22;5127;50.922;6.988;2022-11-24T01:16:16;8.80;73.50
10171;DHT22;5127;50.922;6.988;2022-11-24T01:18:43;8.80;73.50
10171;DHT22;5127;50.922;6.988;2022-11-24T01:21:13;8.80;73.50
10171;DHT22;5127;50.922;6.988;2022-11-24T01:23:40;8.80;73.50
10171;DHT22;5127;50.922;6.988;2022-11-24T01:26:09;8.80;73.50
10171;DHT22;5127;50.922;6.988;2022-11-24T01:28:37;8.80;73.50
10171;DHT22;5127;50.922;6.988;2022-11-24T01:31:05;8.80;73.60
10171;DHT22;5127;50.922;6.988;2022-11-24T01:33:34;8.80;73.80
10171;DHT22;5127;50.922;6.988;2022-11-24T01:36:03;8.80;74.00
10171;DHT22;5127;50.922;6.988;2022-11-24T01:38:31;8.80;74.20
10171;DHT22;5127;50.922;6.988;2022-11-24T01:41:00;8.90;74.30
10171;DHT22;5127;50.922;6.988;2022-11-24T01:43:27;8.90;74.40
10171;DHT22;5127;50.922;6.988;2022-11-24T01:45:55;9.00;74.60
10171;DHT22;5127;50.922;6.988;2022-11-24T01:48:25;9.00;74.50
10171;DHT22;5127;50.922;6.988;2022-11-24T01:51:08;9.00;74.50
10171;DHT22;5127;50.922;6.988;2022-11-24T01:53:38;9.10;74.50
10171;DHT22;5127;50.922;6.988;2022-11-24T01:56:08;9.10;74.30
10171;DHT22;5127;50.922;6.988;2022-11-24T01:58:37;9.10;74.30
10171;DHT22;5127;50.922;6.988;2022-11-24T02:01:07;9.10;74.30
10171;DHT22;5127;50.922;6.988;2022-11-24T02:03:37;9.10;74.20
10171;DHT22;5127;50.922;6.988;2022-11-24T02:06:08;9.10;74.20
10171;DHT22;5127;50.922;6.988;2022-11-24T02:08:42;9.10;74.10
10171;DHT22;5127;50.922;6.988;2022-11-24T02:11:11;9.20;74.10
10171;DHT22;5127;50.922;6.988;2022-11-24T02:13:39;9.20;74.10
10171;DHT22;5127;50.922;6.988;2022-11-24T02:16:09;9.10;74.00
10171;DHT22;5127;50.922;6.988;2022-11-24T02:18:37;9.20;74.10
10171;DHT22;5127;50.922;6.988;2022-11-24T02:21:05;9.20;74.20
10171;DHT22;5127;50.922;6.988;2022-11-24T02:23:40;9.20;74.30
10171;DHT22;5127;50.922;6.988;2022-11-24T02:26:14;9.20;74.50
10171;DHT22;5127;50.922;6.988;2022-11-24T02:28:47;9.20;74.60
10171;DHT22;5127;50.922;6.988;2022-11-24T02:31:15;9.20;74.70
10171;DHT22;5127;50.922;6.988;2022-11-24T02:33:42;9.30;74.90
10171;DHT22;5127;50.922;6.988;2022-11-24T02:36:09;9.30;74.90
10171;DHT22;5127;50.922;6.988;2022-11-24T02:38:37;9.30;74.80
10171;DHT22;5127;50.922;6.988;2022-11-24T02:41:07;9.30;74.70
10171;DHT22;5127;50.922;6.988;2022-11-24T02:43:39;9.40;74.80
10171;DHT22;5127;50.922;6.988;2022-11-24T02:46:09;9.40;74.80
10171;DHT22;5127;50.922;6.988;2022-11-24T02:48:36;9.40;74.70
10171;DHT22;5127;50.922;6.988;2022-11-24T02:51:04;9.50;74.60
10171;DHT22;5127;50.922;6.988;2022-11-24T02:53:31;9.50;74.40
10171;DHT22;5127;50.922;6.988;2022-11-24T02:55:59;9.50;74.20
10171;DHT22;5127;50.922;6.988;2022-11-24T02:58:26;9.50;74.10
10171;DHT22;5127;50.922;6.988;2022-11-24T03:00:54;9.40;73.90
10171;DHT22;5127;50.922;6.988;2022-11-24T03:03:24;9.40;73.80
10171;DHT22;5127;50.922;6.988;2022-11-24T03:05:51;9.40;73.80
10171;DHT22;5127;50.922;6.988;2022-11-24T03:08:19;9.40;73.80
10171;DHT22;5127;50.922;6.988;2022-11-24T03:10:46;9.40;73.70
10171;DHT22;5127;50.922;6.988;2022-11-24T03:13:14;9.30;73.80
10171;DHT22;5127;50.922;6.988;2022-11-24T03:15:41;9.30;74.00
10171;DHT22;5127;50.922;6.988;2022-11-24T03:18:08;9.30;74.10
10171;DHT22;5127;50.922;6.988;2022-11-24T03:20:37;9.30;74.10
10171;DHT22;5127;50.922;6.988;2022-11-24T03:23:04;9.30;74.20
10171;DHT22;5127;50.922;6.988;2022-11-24T03:25:32;9.30;74.30
10171;DHT22;5127;50.922;6.988;2022-11-24T03:27:59;9.30;74.30
10171;DHT22;5127;50.922;6.988;2022-11-24T03:30:27;9.30;74.40
10171;DHT22;5127;50.922;6.988;2022-11-24T03:32:54;9.30;74.50
10171;DHT22;5127;50.922;6.988;2022-11-24T03:35:22;9.30;74.50
10171;DHT22;5127;50.922;6.988;2022-11-24T03:37:50;9.30;74.60
10171;DHT22;5127;50.922;6.988;2022-11-24T03:40:18;9.30;74.70
10171;DHT22;5127;50.922;6.988;2022-11-24T03:42:45;9.30;74.80
10171;DHT22;5127;50.922;6.988;2022-11-24T03:45:12;9.40;75.00
10171;DHT22;5127;50.922;6.988;2022-11-24T03:47:39;9.40;75.00
10171;DHT22;5127;50.922;6.988;2022-11-24T03:50:07;9.40;75.00
10171;DHT22;5127;50.922;6.988;2022-11-24T03:52:35;9.50;75.10
10171;DHT22;5127;50.922;6.988;2022-11-24T03:55:04;9.50;75.10
10171;DHT22;5127;50.922;6.988;2022-11-24T03:57:31;9.50;75.10
10171;DHT22;5127;50.922;6.988;2022-11-24T03:59:58;9.60;75.20
10171;DHT22;5127;50.922;6.988;2022-11-24T04:02:25;9.60;75.30
10171;DHT22;5127;50.922;6.988;2022-11-24T04:04:53;9.70;75.40
10171;DHT22;5127;50.922;6.988;2022-11-24T04:07:20;9.60;75.40
10171;DHT22;5127;50.922;6.988;2022-11-24T04:09:47;9.60;75.40
10171;DHT22;5127;50.922;6.988;2022-11-24T04:12:16;9.70;75.50
10171;DHT22;5127;50.922;6.988;2022-11-24T04:15:01;9.70;75.50
10171;DHT22;5127;50.922;6.988;2022-11-24T04:17:28;9.80;75.60
10171;DHT22;5127;50.922;6.988;2022-11-24T04:19:55;9.80;75.70
10171;DHT22;5127;50.922;6.988;2022-11-24T04:22:23;9.80;75.80
10171;DHT22;5127;50.922;6.988;2022-11-24T04:24:50;9.90;75.90
10171;DHT22;5127;50.922;6.988;2022-11-24T04:27:19;9.90;75.90
10171;DHT22;5127;50.922;6.988;2022-11-24T04:29:46;10.00;74.80
10171;DHT22;5127;50.922;6.988;2022-11-24T04:32:13;10.00;74.80
10171;DHT22;5127;50.922;6.988;2022-11-24T04:34:40;10.00;74.90
10171;DHT22;5127;50.922;6.988;2022-11-24T04:37:08;10.10;75.00
10171;DHT22;5127;50.922;6.988;2022-11-24T04:39:35;10.10;75.00
10171;DHT22;5127;50.922;6.988;2022-11-24T04:42:03;10.20;75.10
10171;DHT22;5127;50.922;6.988;2022-11-24T04:44:31;10.20;75.10
10171;DHT22;5127;50.922;6.988;2022-11-24T04:46:58;10.30;75.10
10171;DHT22;5127;50.922;6.988;2022-11-24T04:49:26;10.30;75.10
10171;DHT22;5127;50.922;6.988;2022-11-24T04:51:53;10.30;75.00
10171;DHT22;5127;50.922;6.988;2022-11-24T04:54:21;10.30;75.00
10171;DHT22;5127;50.922;6.988;2022-11-24T04:56:50;10.40;75.10
10171;DHT22;5127;50.922;6.988;2022-11-24T04:59:18;10.50;75.10
10171;DHT22;5127;50.922;6.988;2022-11-24T05:01:47;10.50;75.10
10171;DHT22;5127;50.922;6.988;2022-11-24T05:04:14;10.50;75.00
10171;DHT22;5127;50.922;6.988;2022-11-24T05:06:42;10.60;75.80
10171;DHT22;5127;50.922;6.988;2022-11-24T05:09:13;10.60;75.10
10171;DHT22;5127;50.922;6.988;2022-11-24T05:11:40;10.60;75.00
10171;DHT22;5127;50.922;6.988;2022-11-24T05:14:08;10.70;75.10
10171;DHT22;5127;50.922;6.988;2022-11-24T05:16:35;10.70;75.10
10171;DHT22;5127;50.922;6.988;2022-11-24T05:19:04;10.70;75.10
10171;DHT22;5127;50.922;6.988;2022-11-24T05:21:31;10.80;75.10
10171;DHT22;5127;50.922;6.988;2022-11-24T05:23:58;10.80;75.10
10171;DHT22;5127;50.922;6.988;2022-11-24T05:26:26;10.80;75.10
10171;DHT22;5127;50.922;6.988;2022-11-24T05:28:53;10.90;75.20
10171;DHT22;5127;50.922;6.988;2022-11-24T05:31:21;10.90;75.10
10171;DHT22;5127;50.922;6.988;2022-11-24T05:33:48;10.90;75.10
10171;DHT22;5127;50.922;6.988;2022-11-24T05:36:17;10.90;75.00
10171;DHT22;5127;50.922;6.988;2022-11-24T05:38:58;10.90;75.00
10171;DHT22;5127;50.922;6.988;2022-11-24T05:41:26;11.00;75.10
10171;DHT22;5127;50.922;6.988;2022-11-24T05:43:53;11.00;75.10
10171;DHT22;5127;50.922;6.988;2022-11-24T05:46:20;11.00;75.10
10171;DHT22;5127;50.922;6.988;2022-11-24T05:48:48;11.10;75.20
10171;DHT22;5127;50.922;6.988;2022-11-24T05:51:16;11.10;75.20
10171;DHT22;5127;50.922;6.988;2022-11-24T05:53:44;11.10;75.10
10171;DHT22;5127;50.922;6.988;2022-11-24T05:56:11;11.20;75.30
10171;DHT22;5127;50.922;6.988;2022-11-24T05:58:38;11.20;75.30
10171;DHT22;5127;50.922;6.988;2022-11-24T06:01:06;11.20;75.30
10171;DHT22;5127;50.922;6.988;2022-11-24T06:03:33;11.20;75.10
10171;DHT22;5127;50.922;6.988;2022-11-24T06:06:00;11.20;75.10
10171;DHT22;5127;50.922;6.988;2022-11-24T06:08:29;11.30;75.10
10171;DHT22;5127;50.922;6.988;2022-11-24T06:10:59;11.30;74.90
10171;DHT22;5127;50.922;6.988;2022-11-24T06:13:42;11.20;74.60
10171;DHT22;5127;50.922;6.988;2022-11-24T06:16:10;11.20;74.50
10171;DHT22;5127;50.922;6.988;2022-11-24T06:18:38;11.20;74.70
10171;DHT22;5127;50.922;6.988;2022-11-24T06:21:05;11.20;74.60
10171;DHT22;5127;50.922;6.988;2022-11-24T06:23:34;11.10;74.60
10171;DHT22;5127;50.922;6.988;2022-11-24T06:26:02;11.10;74.60
10171;DHT22;5127;50.922;6.988;2022-11-24T06:28:29;11.10;74.70
10171;DHT22;5127;50.922;6.988;2022-11-24T06:31:00;11.10;74.80
10171;DHT22;5127;50.922;6.988;2022-11-24T06:33:30;11.10;74.80
10171;DHT22;5127;50.922;6.988;2022-11-24T06:35:59;11.10;74.80
10171;DHT22;5127;50.922;6.988;2022-11-24T06:38:29;11.10;74.90
10171;DHT22;5127;50.922;6.988;2022-11-24T06:41:02;11.10;75.00
10171;DHT22;5127;50.922;6.988;2022-11-24T06:43:31;11.10;75.40
10171;DHT22;5127;50.922;6.988;2022-11-24T06:45:59;11.00;74.90
10171;DHT22;5127;50.922;6.988;2022-11-24T06:48:26;11.00;74.90
10171;DHT22;5127;50.922;6.988;2022-11-24T06:50:57;11.00;74.90
10171;DHT22;5127;50.922;6.988;2022-11-24T06:53:24;11.00;74.80
10171;DHT22;5127;50.922;6.988;2022-11-24T06:55:52;11.00;74.80
10171;DHT22;5127;50.922;6.988;2022-11-24T06:58:20;11.00;74.80
10171;DHT22;5127;50.922;6.988;2022-11-24T07:00:48;11.00;74.80
10171;DHT22;5127;50.922;6.988;2022-11-24T07:03:15;11.00;74.80
10171;DHT22;5127;50.922;6.988;2022-11-24T07:05:44;11.00;74.90
10171;DHT22;5127;50.922;6.988;2022-11-24T07:08:11;11.10;74.90
10171;DHT22;5127;50.922;6.988;2022-11-24T07:10:39;11.00;74.90
10171;DHT22;5127;50.922;6.988;2022-11-24T07:13:07;11.00;74.90
10171;DHT22;5127;50.922;6.988;2022-11-24T07:15:36;11.10;74.90
10171;DHT22;5127;50.922;6.988;2022-11-24T07:18:03;11.10;74.90
10171;DHT22;5127;50.922;6.988;2022-11-24T07:20:31;11.10;74.80
10171;DHT22;5127;50.922;6.988;2022-11-24T07:22:58;11.00;74.60
10171;DHT22;5127;50.922;6.988;2022-11-24T07:25:26;11.10;74.50
10171;DHT22;5127;50.922;6.988;2022-11-24T07:27:55;11.00;74.20
10171;DHT22;5127;50.922;6.988;2022-11-24T07:30:22;11.00;74.10
10171;DHT22;5127;50.922;6.988;2022-11-24T07:32:57;11.00;74.00
10171;DHT22;5127;50.922;6.988;2022-11-24T07:35:25;11.00;73.80
10171;DHT22;5127;50.922;6.988;2022-11-24T07:37:53;11.00;74.10
10171;DHT22;5127;50.922;6.988;2022-11-24T07:40:21;10.90;74.00
10171;DHT22;5127;50.922;6.988;2022-11-24T07:42:48;10.90;74.10
10171;DHT22;5127;50.922;6.988;2022-11-24T07:45:16;10.90;74.10
10171;DHT22;5127;50.922;6.988;2022-11-24T07:47:43;10.90;74.20
10171;DHT22;5127;50.922;6.988;2022-11-24T07:50:12;10.90;74.40
10171;DHT22;5127;50.922;6.988;2022-11-24T07:52:39;10.90;74.50
10171;DHT22;5127;50.922;6.988;2022-11-24T07:55:07;10.80;74.50
10171;DHT22;5127;50.922;6.988;2022-11-24T07:57:34;10.90;74.70
10171;DHT22;5127;50.922;6.988;2022-11-24T08:00:02;10.90;75.00
10171;DHT22;5127;50.922;6.988;2022-11-24T08:02:30;10.90;75.00
10171;DHT22;5127;50.922;6.988;2022-11-24T08:04:58;10.90;75.00
10171;DHT22;5127;50.922;6.988;2022-11-24T08:07:26;10.90;75.10
10171;DHT22;5127;50.922;6.988;2022-11-24T08:09:54;11.00;75.20
10171;DHT22;5127;50.922;6.988;2022-11-24T08:12:21;11.00;75.90
10171;DHT22;5127;50.922;6.988;2022-11-24T08:14:48;11.10;75.40
10171;DHT22;5127;50.922;6.988;2022-11-24T08:17:16;11.20;75.40
10171;DHT22;5127;50.922;6.988;2022-11-24T08:19:43;11.10;75.30
10171;DHT22;5127;50.922;6.988;2022-11-24T08:22:10;11.20;75.40
10171;DHT22;5127;50.922;6.988;2022-11-24T08:24:39;11.20;75.40
10171;DHT22;5127;50.922;6.988;2022-11-24T08:27:11;11.20;75.40
10171;DHT22;5127;50.922;6.988;2022-11-24T08:29:39;11.30;75.50
10171;DHT22;5127;50.922;6.988;2022-11-24T08:32:06;11.30;75.40
10171;DHT22;5127;50.922;6.988;2022-11-24T08:34:34;11.40;75.40
10171;DHT22;5127;50.922;6.988;2022-11-24T08:37:02;11.40;75.50
10171;DHT22;5127;50.922;6.988;2022-11-24T08:39:30;11.50;75.60
10171;DHT22;5127;50.922;6.988;2022-11-24T08:41:59;11.50;75.50
10171;DHT22;5127;50.922;6.988;2022-11-24T08:44:26;11.60;75.40
10171;DHT22;5127;50.922;6.988;2022-11-24T08:46:54;11.60;75.50
10171;DHT22;5127;50.922;6.988;2022-11-24T08:49:22;11.60;75.40
10171;DHT22;5127;50.922;6.988;2022-11-24T08:51:49;11.70;75.60
10171;DHT22;5127;50.922;6.988;2022-11-24T08:54:16;11.70;75.60
10171;DHT22;5127;50.922;6.988;2022-11-24T08:56:44;11.80;75.90
10171;DHT22;5127;50.922;6.988;2022-11-24T08:59:13;11.80;76.00
10171;DHT22;5127;50.922;6.988;2022-11-24T09:01:41;11.90;76.10
10171;DHT22;5127;50.922;6.988;2022-11-24T09:04:08;11.90;76.10
10171;DHT22;5127;50.922;6.988;2022-11-24T09:06:35;12.00;76.20
10171;DHT22;5127;50.922;6.988;2022-11-24T09:09:03;12.00;76.10
10171;DHT22;5127;50.922;6.988;2022-11-24T09:11:32;12.10;76.00
10171;DHT22;5127;50.922;6.988;2022-11-24T09:13:59;12.20;75.90
10171;DHT22;5127;50.922;6.988;2022-11-24T09:16:28;12.20;76.00
10171;DHT22;5127;50.922;6.988;2022-11-24T09:18:58;12.30;75.80
10171;DHT22;5127;50.922;6.988;2022-11-24T09:21:27;12.30;75.60
10171;DHT22;5127;50.922;6.988;2022-11-24T09:23:54;12.40;76.40
10171;DHT22;5127;50.922;6.988;2022-11-24T09:26:23;12.40;75.70
10171;DHT22;5127;50.922;6.988;2022-11-24T09:28:52;12.40;75.60
10171;DHT22;5127;50.922;6.988;2022-11-24T09:31:21;12.40;75.60
10171;DHT22;5127;50.922;6.988;2022-11-24T09:33:51;12.40;75.50
10171;DHT22;5127;50.922;6.988;2022-11-24T09:36:18;12.40;75.50
10171;DHT22;5127;50.922;6.988;2022-11-24T09:38:46;12.50;75.70
10171;DHT22;5127;50.922;6.988;2022-11-24T09:41:43;12.50;75.60
10171;DHT22;5127;50.922;6.988;2022-11-24T09:44:34;12.50;75.00
10171;DHT22;5127;50.922;6.988;2022-11-24T09:47:11;12.50;74.70
10171;DHT22;5127;50.922;6.988;2022-11-24T09:49:48;12.60;75.10
10171;DHT22;5127;50.922;6.988;2022-11-24T09:52:21;12.60;75.00
10171;DHT22;5127;50.922;6.988;2022-11-24T09:54:51;12.70;75.30
10171;DHT22;5127;50.922;6.988;2022-11-24T09:57:21;12.70;75.40
10171;DHT22;5127;50.922;6.988;2022-11-24T09:59:50;12.80;75.70
10171;DHT22;5127;50.922;6.988;2022-11-24T10:02:17;12.80;75.90
10171;DHT22;5127;50.922;6.988;2022-11-24T10:04:46;12.90;76.00
10171;DHT22;5127;50.922;6.988;2022-11-24T10:07:19;12.90;75.90
10171;DHT22;5127;50.922;6.988;2022-11-24T10:09:55;13.00;75.70
10171;DHT22;5127;50.922;6.988;2022-11-24T10:12:42;13.10;75.30
10171;DHT22;5127;50.922;6.988;2022-11-24T10:15:32;13.20;75.00
10171;DHT22;5127;50.922;6.988;2022-11-24T10:21:21;13.30;74.50
10171;DHT22;5127;50.922;6.988;2022-11-24T10:24:15;13.30;74.20
10171;DHT22;5127;50.922;6.988;2022-11-24T10:26:50;13.30;73.80
10171;DHT22;5127;50.922;6.988;2022-11-24T10:29:25;13.30;74.10
10171;DHT22;5127;50.922;6.988;2022-11-24T10:31:55;13.30;74.00
10171;DHT22;5127;50.922;6.988;2022-11-24T10:34:27;13.30;74.10
10171;DHT22;5127;50.922;6.988;2022-11-24T10:37:00;13.30;73.80
10171;DHT22;5127;50.922;6.988;2022-11-24T10:39:34;13.30;73.80
10171;DHT22;5127;50.922;6.988;2022-11-24T10:42:06;13.30;73.70
10171;DHT22;5127;50.922;6.988;2022-11-24T10:44:38;13.30;73.90
10171;DHT22;5127;50.922;6.988;2022-11-24T10:47:16;13.30;74.30
10171;DHT22;5127;50.922;6.988;2022-11-24T10:49:47;13.30;73.30
10171;DHT22;5127;50.922;6.988;2022-11-24T10:52:19;13.30;74.00
10171;DHT22;5127;50.922;6.988;2022-11-24T10:54:57;13.30;73.90
10171;DHT22;5127;50.922;6.988;2022-11-24T10:57:27;13.30;72.90
10171;DHT22;5127;50.922;6.988;2022-11-24T10:59:54;13.40;74.00
10171;DHT22;5127;50.922;6.988;2022-11-24T11:02:32;13.40;74.10
10171;DHT22;5127;50.922;6.988;2022-11-24T11:05:24;13.40;73.30
10171;DHT22;5127;50.922;6.988;2022-11-24T11:08:19;13.40;72.60
10171;DHT22;5127;50.922;6.988;2022-11-24T11:10:48;13.40;72.80
10171;DHT22;5127;50.922;6.988;2022-11-24T11:13:24;13.40;73.80
10171;DHT22;5127;50.922;6.988;2022-11-24T11:15:52;13.50;73.30
10171;DHT22;5127;50.922;6.988;2022-11-24T11:18:20;13.50;73.90
10171;DHT22;5127;50.922;6.988;2022-11-24T11:20:50;13.50;73.90
10171;DHT22;5127;50.922;6.988;2022-11-24T11:23:25;13.50;73.80
10171;DHT22;5127;50.922;6.988;2022-11-24T11:26:18;13.50;73.20
10171;DHT22;5127;50.922;6.988;2022-11-24T11:29:00;13.50;72.60
10171;DHT22;5127;50.922;6.988;2022-11-24T11:31:28;13.50;72.60
10171;DHT22;5127;50.922;6.988;2022-11-24T11:33:59;13.50;73.60
10171;DHT22;5127;50.922;6.988;2022-11-24T11:36:27;13.50;73.30
10171;DHT22;5127;50.922;6.988;2022-11-24T11:38:56;13.50;73.30
10171;DHT22;5127;50.922;6.988;2022-11-24T11:41:29;13.50;73.10
10171;DHT22;5127;50.922;6.988;2022-11-24T11:44:08;13.50;72.90
10171;DHT22;5127;50.922;6.988;2022-11-24T11:46:37;13.50;73.00
10171;DHT22;5127;50.922;6.988;2022-11-24T11:49:04;13.60;73.70
10171;DHT22;5127;50.922;6.988;2022-11-24T11:51:43;13.60;73.70
10171;DHT22;5127;50.922;6.988;2022-11-24T11:54:24;13.60;72.60
10171;DHT22;5127;50.922;6.988;2022-11-24T11:57:00;13.60;73.00
10171;DHT22;5127;50.922;6.988;2022-11-24T11:59:47;13.70;73.10
10171;DHT22;5127;50.922;6.988;2022-11-24T12:02:38;13.70;72.60
10171;DHT22;5127;50.922;6.988;2022-11-24T12:05:13;13.70;72.20
10171;DHT22;5127;50.922;6.988;2022-11-24T12:07:54;13.70;73.40
10171;DHT22;5127;50.922;6.988;2022-11-24T12:10:32;13.80;72.70
10171;DHT22;5127;50.922;6.988;2022-11-24T12:13:24;13.80;72.40
10171;DHT22;5127;50.922;6.988;2022-11-24T12:15:57;13.80;73.00
10171;DHT22;5127;50.922;6.988;2022-11-24T12:18:34;13.90;73.30
10171;DHT22;5127;50.922;6.988;2022-11-24T12:21:13;13.90;72.90
10171;DHT22;5127;50.922;6.988;2022-11-24T12:23:51;13.90;72.40
10171;DHT22;5127;50.922;6.988;2022-11-24T12:26:29;14.00;72.70
10171;DHT22;5127;50.922;6.988;2022-11-24T12:29:07;14.00;73.20
10171;DHT22;5127;50.922;6.988;2022-11-24T12:31:43;14.00;72.60
10171;DHT22;5127;50.922;6.988;2022-11-24T12:34:30;14.00;72.50
10171;DHT22;5127;50.922;6.988;2022-11-24T12:37:09;14.10;71.60
10171;DHT22;5127;50.922;6.988;2022-11-24T12:39:44;14.10;72.30
10171;DHT22;5127;50.922;6.988;2022-11-24T12:42:27;14.10;72.20
10171;DHT22;5127;50.922;6.988;2022-11-24T12:45:13;14.10;71.70
10171;DHT22;5127;50.922;6.988;2022-11-24T12:47:53;14.20;71.40
10171;DHT22;5127;50.922;6.988;2022-11-24T12:50:26;14.10;71.70
10171;DHT22;5127;50.922;6.988;2022-11-24T12:52:58;14.20;72.30
10171;DHT22;5127;50.922;6.988;2022-11-24T12:55:29;14.10;71.90
10171;DHT22;5127;50.922;6.988;2022-11-24T12:58:06;14.10;72.50
10171;DHT22;5127;50.922;6.988;2022-11-24T13:00:42;14.10;71.40
10171;DHT22;5127;50.922;6.988;2022-11-24T13:03:20;14.10;71.70
10171;DHT22;5127;50.922;6.988;2022-11-24T13:05:55;14.10;71.30
10171;DHT22;5127;50.922;6.988;2022-11-24T13:08:24;14.10;71.60
10171;DHT22;5127;50.922;6.988;2022-11-24T13:10:52;14.10;72.00
10171;DHT22;5127;50.922;6.988;2022-11-24T13:13:25;14.10;72.00
10171;DHT22;5127;50.922;6.988;2022-11-24T13:16:14;14.10;71.40
10171;DHT22;5127;50.922;6.988;2022-11-24T13:18:44;14.10;70.20
10171;DHT22;5127;50.922;6.988;2022-11-24T13:21:33;14.10;71.70
10171;DHT22;5127;50.922;6.988;2022-11-24T13:24:03;14.10;70.20
10171;DHT22;5127;50.922;6.988;2022-11-24T13:26:44;14.10;71.80
10171;DHT22;5127;50.922;6.988;2022-11-24T13:29:32;14.10;70.80
10171;DHT22;5127;50.922;6.988;2022-11-24T13:35:16;14.10;70.10
10171;DHT22;5127;50.922;6.988;2022-11-24T13:37:49;14.10;71.80
10171;DHT22;5127;50.922;6.988;2022-11-24T13:40:38;14.10;71.60
10171;DHT22;5127;50.922;6.988;2022-11-24T13:43:18;14.10;70.10
10171;DHT22;5127;50.922;6.988;2022-11-24T13:45:51;14.10;70.30
10171;DHT22;5127;50.922;6.988;2022-11-24T13:48:51;14.10;70.80
10171;DHT22;5127;50.922;6.988;2022-11-24T13:51:22;14.10;69.70
10171;DHT22;5127;50.922;6.988;2022-11-24T13:53:52;14.10;70.60
10171;DHT22;5127;50.922;6.988;2022-11-24T13:56:28;14.10;70.90
10171;DHT22;5127;50.922;6.988;2022-11-24T13:58:58;14.10;70.10
10171;DHT22;5127;50.922;6.988;2022-11-24T14:01:29;14.10;71.20
10171;DHT22;5127;50.922;6.988;2022-11-24T14:04:03;14.10;70.80
10171;DHT22;5127;50.922;6.988;2022-11-24T14:06:34;14.10;70.90
10171;DHT22;5127;50.922;6.988;2022-11-24T14:09:15;14.10;70.80
10171;DHT22;5127;50.922;6.988;2022-11-24T14:11:54;14.20;70.70
10171;DHT22;5127;50.922;6.988;2022-11-24T14:14:23;14.20;70.00
10171;DHT22;5127;50.922;6.988;2022-11-24T14:17:06;14.20;71.20
10171;DHT22;5127;50.922;6.988;2022-11-24T14:19:34;14.20;69.50
10171;DHT22;5127;50.922;6.988;2022-11-24T14:22:01;14.20;70.90
10171;DHT22;5127;50.922;6.988;2022-11-24T14:24:30;14.20;70.90
10171;DHT22;5127;50.922;6.988;2022-11-24T14:26:59;14.20;70.30
10171;DHT22;5127;50.922;6.988;2022-11-24T14:29:27;14.20;70.60
10171;DHT22;5127;50.922;6.988;2022-11-24T14:31:59;14.20;70.50
10171;DHT22;5127;50.922;6.988;2022-11-24T14:34:28;14.20;70.40
10171;DHT22;5127;50.922;6.988;2022-11-24T14:36:56;14.10;69.90
10171;DHT22;5127;50.922;6.988;2022-11-24T14:39:25;14.10;70.20
10171;DHT22;5127;50.922;6.988;2022-11-24T14:41:56;14.00;70.00
10171;DHT22;5127;50.922;6.988;2022-11-24T14:44:27;14.00;69.90
10171;DHT22;5127;50.922;6.988;2022-11-24T14:47:02;14.00;70.10
10171;DHT22;5127;50.922;6.988;2022-11-24T14:49:32;14.00;69.50
10171;DHT22;5127;50.922;6.988;2022-11-24T14:52:02;13.90;69.80
10171;DHT22;5127;50.922;6.988;2022-11-24T14:54:30;13.90;69.90
10171;DHT22;5127;50.922;6.988;2022-11-24T14:56:59;13.90;70.10
10171;DHT22;5127;50.922;6.988;2022-11-24T14:59:30;13.90;69.80
10171;DHT22;5127;50.922;6.988;2022-11-24T15:01:59;13.80;69.80
10171;DHT22;5127;50.922;6.988;2022-11-24T15:04:28;13.80;69.80
10171;DHT22;5127;50.922;6.988;2022-11-24T15:07:15;13.70;69.70
10171;DHT22;5127;50.922;6.988;2022-11-24T15:09:49;13.80;68.50
10171;DHT22;5127;50.922;6.988;2022-11-24T15:12:23;13.60;69.70
10171;DHT22;5127;50.922;6.988;2022-11-24T15:14:55;13.60;68.90
10171;DHT22;5127;50.922;6.988;2022-11-24T15:17:25;13.50;69.50
10171;DHT22;5127;50.922;6.988;2022-11-24T15:19:57;13.50;69.50
10171;DHT22;5127;50.922;6.988;2022-11-24T15:22:33;13.50;69.00
10171;DHT22;5127;50.922;6.988;2022-11-24T15:25:00;13.40;68.80
10171;DHT22;5127;50.922;6.988;2022-11-24T15:27:28;13.40;69.60
10171;DHT22;5127;50.922;6.988;2022-11-24T15:29:55;13.40;69.80
10171;DHT22;5127;50.922;6.988;2022-11-24T15:32:22;13.30;69.70
10171;DHT22;5127;50.922;6.988;2022-11-24T15:34:50;13.30;69.70
10171;DHT22;5127;50.922;6.988;2022-11-24T15:37:17;13.30;69.60
10171;DHT22;5127;50.922;6.988;2022-11-24T15:39:45;13.30;69.50
10171;DHT22;5127;50.922;6.988;2022-11-24T15:42:13;13.20;69.20
10171;DHT22;5127;50.922;6.988;2022-11-24T15:44:40;13.20;69.40
10171;DHT22;5127;50.922;6.988;2022-11-24T15:47:07;13.10;69.30
10171;DHT22;5127;50.922;6.988;2022-11-24T15:49:35;13.10;69.30
10171;DHT22;5127;50.922;6.988;2022-11-24T15:52:02;13.10;69.30
10171;DHT22;5127;50.922;6.988;2022-11-24T15:54:29;13.10;69.30
10171;DHT22;5127;50.922;6.988;2022-11-24T15:56:58;13.00;69.10
10171;DHT22;5127;50.922;6.988;2022-11-24T15:59:25;12.90;68.80
10171;DHT22;5127;50.922;6.988;2022-11-24T16:01:53;12.90;69.80
10171;DHT22;5127;50.922;6.988;2022-11-24T16:04:20;12.90;69.20
10171;DHT22;5127;50.922;6.988;2022-11-24T16:06:47;12.90;69.20
10171;DHT22;5127;50.922;6.988;2022-11-24T16:09:15;12.80;69.20
10171;DHT22;5127;50.922;6.988;2022-11-24T16:11:42;12.80;69.20
10171;DHT22;5127;50.922;6.988;2022-11-24T16:14:11;12.80;69.20
10171;DHT22;5127;50.922;6.988;2022-11-24T16:16:38;12.70;68.80
10171;DHT22;5127;50.922;6.988;2022-11-24T16:19:07;12.70;69.10